createdAt,value
2022-08-05T00:02:08.002Z,101359.59
2022-08-05T00:06:03.227Z,101332.13
2022-08-05T00:09:04.128Z,101353.31
2022-08-05T00:12:27.883Z,101337.97
2022-08-05T00:15:55.132Z,101318.31
2022-08-05T00:18:44.924Z,101282.03
2022-08-05T00:22:01.674Z,101283.63
2022-08-05T00:24:58.798Z,101267.25
2022-08-05T00:28:14.550Z,101227.91
2022-08-05T00:31:53.027Z,101241.06
2022-08-05T00:35:05.809Z,101264.44
2022-08-05T00:38:03.820Z,101261.50
2022-08-05T00:41:11.753Z,101237.72
2022-08-05T00:44:09.243Z,101227.09
2022-08-05T00:47:07.611Z,101241.06
2022-08-05T00:50:09.933Z,101235.72
2022-08-05T00:53:09.883Z,101232.06
2022-08-05T00:56:25.013Z,101252.03
2022-08-05T00:59:22.355Z,101246.47
2022-08-05T01:02:18.971Z,101258.97
2022-08-05T01:05:16.163Z,101249.78
2022-08-05T01:08:39.168Z,101233.69
2022-08-05T01:11:37.425Z,101257.69
2022-08-05T01:14:52.947Z,101262.31
2022-08-05T01:17:54.258Z,101278.00
2022-08-05T01:21:12.461Z,101261.34
2022-08-05T01:24:32.857Z,101257.72
2022-08-05T01:27:57.997Z,101277.13
2022-08-05T01:31:09.174Z,101289.38
2022-08-05T01:34:17.838Z,101294.50
2022-08-05T01:37:24.759Z,101291.91
2022-08-05T01:40:28.015Z,101294.81
2022-08-05T01:43:26.600Z,101296.59
2022-08-05T01:46:42.887Z,101290.34
2022-08-05T01:49:59.985Z,101282.53
2022-08-05T01:53:03.135Z,101280.13
2022-08-05T01:56:04.449Z,101264.38
2022-08-05T01:59:03.919Z,101269.34
2022-08-05T02:02:01.054Z,101284.84
2022-08-05T02:05:03.089Z,101303.19
2022-08-05T02:08:01.665Z,101321.63
2022-08-05T02:11:07.053Z,101322.41
2022-08-05T02:14:14.786Z,101319.47
2022-08-05T02:18:27.998Z,101300.91
2022-08-05T02:20:48.204Z,101285.88
2022-08-05T02:23:52.275Z,101293.50
2022-08-05T02:26:54.002Z,101299.69
2022-08-05T02:29:59.053Z,101300.56
2022-08-05T02:32:56.929Z,101282.59
2022-08-05T02:35:59.160Z,101283.97
2022-08-05T02:38:58.186Z,101299.03
2022-08-05T02:42:00.457Z,101296.84
2022-08-05T02:44:58.386Z,101307.09
2022-08-05T02:48:07.514Z,101303.03
2022-08-05T02:51:10.172Z,101297.25
2022-08-05T02:54:07.042Z,101298.44
2022-08-05T02:57:10.217Z,101300.53
2022-08-05T03:00:25.400Z,101294.38
2022-08-05T03:03:24.319Z,101303.38
2022-08-05T03:06:55.218Z,101308.22
2022-08-05T03:09:43.884Z,101316.75
2022-08-05T03:12:51.798Z,101304.94
2022-08-05T03:15:49.199Z,101313.97
2022-08-05T03:18:49.232Z,101320.94
2022-08-05T03:21:48.614Z,101322.53
2022-08-05T03:24:50.947Z,101321.78
2022-08-05T03:27:59.659Z,101318.56
2022-08-05T03:30:57.974Z,101323.50
2022-08-05T03:33:55.134Z,101329.34
2022-08-05T03:36:52.347Z,101329.41
2022-08-05T03:39:58.947Z,101328.63
2022-08-05T03:42:57.278Z,101334.38
2022-08-05T03:45:58.603Z,101355.69
2022-08-05T03:48:56.497Z,101352.47
2022-08-05T03:52:36.557Z,101359.44
2022-08-05T03:56:04.693Z,101332.34
2022-08-05T03:58:45.854Z,101331.09
2022-08-05T04:01:46.762Z,101317.97
2022-08-05T04:04:45.159Z,101290.03
2022-08-05T04:07:51.444Z,101301.63
2022-08-05T04:10:55.277Z,101310.56
2022-08-05T04:13:53.282Z,101298.69
2022-08-05T04:16:51.413Z,101287.63
2022-08-05T04:19:54.307Z,101297.56
2022-08-05T04:22:52.114Z,101295.81
2022-08-05T04:26:00.618Z,101297.75
2022-08-05T04:28:58.074Z,101291.66
2022-08-05T04:31:57.588Z,101265.63
2022-08-05T04:34:57.539Z,101265.66
2022-08-05T04:38:02.386Z,101265.94
2022-08-05T04:41:04.375Z,101236.03
2022-08-05T04:44:02.414Z,101239.00
2022-08-05T04:47:09.933Z,101274.22
2022-08-05T04:50:11.524Z,101286.88
2022-08-05T04:53:09.770Z,101305.72
2022-08-05T04:56:33.520Z,101323.78
2022-08-05T04:59:38.255Z,101320.50
2022-08-05T05:02:41.844Z,101308.97
2022-08-05T05:06:39.069Z,101295.88
2022-08-05T05:08:58.518Z,101280.34
2022-08-05T05:12:02.824Z,101280.41
2022-08-05T05:15:03.739Z,101273.03
2022-08-05T05:18:01.264Z,101288.59
2022-08-05T05:20:59.486Z,101302.91
2022-08-05T05:24:01.779Z,101305.41
2022-08-05T05:27:00.281Z,101316.03
2022-08-05T05:30:03.843Z,101317.19
2022-08-05T05:33:16.455Z,101309.81
2022-08-05T05:36:15.250Z,101317.16
2022-08-05T05:39:13.249Z,101316.78
2022-08-05T05:42:11.340Z,101327.47
2022-08-05T05:45:10.721Z,101332.00
2022-08-05T05:48:11.367Z,101336.13
2022-08-05T05:51:24.360Z,101323.81
2022-08-05T05:54:22.853Z,101331.56
2022-08-05T05:57:52.340Z,101335.69
2022-08-05T06:00:50.789Z,101342.66
2022-08-05T06:04:00.630Z,101336.91
2022-08-05T06:07:01.648Z,101334.03
2022-08-05T06:10:01.599Z,101341.03
2022-08-05T06:13:03.912Z,101342.69
2022-08-05T06:16:28.286Z,101342.16
2022-08-05T06:19:26.254Z,101349.94
2022-08-05T06:22:34.028Z,101354.91
2022-08-05T06:26:12.529Z,101363.88
2022-08-05T06:28:48.798Z,101363.09
2022-08-05T06:31:47.144Z,101382.78
2022-08-05T06:34:44.765Z,101377.03
2022-08-05T06:37:57.560Z,101375.38
2022-08-05T06:40:55.510Z,101360.19
2022-08-05T06:44:00.191Z,101364.34
2022-08-05T06:46:57.490Z,101357.44
2022-08-05T06:50:01.239Z,101382.00
2022-08-05T06:53:11.738Z,101412.75
2022-08-05T06:56:26.638Z,101413.53
2022-08-05T06:59:24.736Z,101394.69
2022-08-05T07:02:22.905Z,101388.56
2022-08-05T07:05:23.427Z,101400.03
2022-08-05T07:08:29.380Z,101389.38
2022-08-05T07:11:28.709Z,101375.47
2022-08-05T07:14:45.002Z,101384.50
2022-08-05T07:18:01.691Z,101392.69
2022-08-05T07:21:05.491Z,101395.13
2022-08-05T07:24:02.268Z,101405.41
2022-08-05T07:26:59.191Z,101409.06
2022-08-05T07:30:24.044Z,101405.81
2022-08-05T07:33:17.234Z,101414.03
2022-08-05T07:36:20.349Z,101431.25
2022-08-05T07:39:24.822Z,101425.91
2022-08-05T07:42:36.410Z,101425.50
2022-08-05T07:45:57.406Z,101430.81
2022-08-05T07:49:01.516Z,101422.63
2022-08-05T07:52:01.507Z,101415.25
2022-08-05T07:54:58.719Z,101407.06
2022-08-05T07:58:02.730Z,101401.66
2022-08-05T08:01:00.665Z,101399.63
2022-08-05T08:04:03.954Z,101413.59
2022-08-05T08:07:01.659Z,101406.63
2022-08-05T08:10:02.756Z,101406.59
2022-08-05T08:13:00.660Z,101406.56
2022-08-05T08:16:35.713Z,101415.66
2022-08-05T08:20:10.255Z,101399.25
2022-08-05T08:22:32.905Z,101412.78
2022-08-05T08:25:59.377Z,101426.72
2022-08-05T08:28:58.905Z,101429.19
2022-08-05T08:31:56.722Z,101428.78
2022-08-05T08:34:54.415Z,101414.03
2022-08-05T08:37:56.460Z,101421.81
2022-08-05T08:40:53.547Z,101416.47
2022-08-05T08:45:20.484Z,101407.44
2022-08-05T08:47:34.581Z,101414.41
2022-08-05T08:50:52.011Z,101416.88
2022-08-05T08:53:45.192Z,101424.66
2022-08-05T08:56:47.707Z,101425.09
2022-08-05T08:59:47.259Z,101427.13
2022-08-05T09:02:46.557Z,101440.66
2022-08-05T09:06:07.859Z,101450.91
2022-08-05T09:09:02.986Z,101456.66
2022-08-05T09:12:06.049Z,101450.09
2022-08-05T09:15:17.344Z,101446.72
2022-08-05T09:18:17.662Z,101441.41
2022-08-05T09:21:21.232Z,101451.28
2022-08-05T09:24:31.744Z,101454.94
2022-08-05T09:28:04.385Z,101461.91
2022-08-05T09:30:59.012Z,101453.72
2022-08-05T09:34:04.043Z,101453.72
2022-08-05T09:37:01.704Z,101466.41
2022-08-05T09:39:58.559Z,101471.72
2022-08-05T09:42:55.466Z,101469.66
2022-08-05T09:46:06.859Z,101474.19
2022-08-05T09:49:18.816Z,101465.22
2022-08-05T09:52:27.543Z,101459.03
2022-08-05T09:55:57.653Z,101460.66
2022-08-05T09:58:42.164Z,101471.38
2022-08-05T10:01:45.721Z,101457.47
2022-08-05T10:04:48.345Z,101456.25
2022-08-05T10:08:35.822Z,101451.66
2022-08-05T10:11:16.645Z,101454.50
2022-08-05T10:14:26.877Z,101470.94
2022-08-05T10:17:37.230Z,101467.22
2022-08-05T10:21:08.522Z,101475.41
2022-08-05T10:24:15.472Z,101477.47
2022-08-05T10:27:14.115Z,101488.13
2022-08-05T10:31:20.478Z,101495.47
2022-08-05T10:33:34.377Z,101502.78
2022-08-05T10:36:32.321Z,101509.34
2022-08-05T10:40:03.585Z,101513.44
2022-08-05T10:42:52.814Z,101508.19
2022-08-05T10:46:06.826Z,101510.69
2022-08-05T10:49:10.029Z,101528.75
2022-08-05T10:52:10.329Z,101527.94
2022-08-05T10:55:10.270Z,101529.63
2022-08-05T10:58:15.707Z,101539.44
2022-08-05T11:01:15.022Z,101534.13
2022-08-05T11:04:22.289Z,101541.94
2022-08-05T11:07:33.039Z,101533.34
2022-08-05T11:10:50.347Z,101534.59
2022-08-05T11:13:58.445Z,101536.19
2022-08-05T11:17:59.923Z,101547.69
2022-08-05T11:20:53.575Z,101536.22
2022-08-05T11:24:03.207Z,101551.41
2022-08-05T11:27:51.154Z,101546.06
2022-08-05T11:30:58.421Z,101544.03
2022-08-05T11:34:06.600Z,101548.97
2022-08-05T11:38:26.291Z,101555.06
2022-08-05T11:41:00.384Z,101546.47
2022-08-05T11:44:05.732Z,101557.13
2022-08-05T11:47:11.839Z,101560.00
2022-08-05T11:50:14.328Z,101555.09
2022-08-05T11:53:11.736Z,101565.78
2022-08-05T11:56:08.839Z,101558.00
2022-08-05T11:59:13.910Z,101558.84
2022-08-05T12:02:24.027Z,101564.16
2022-08-05T12:05:36.362Z,101554.28
2022-08-05T12:08:49.774Z,101555.97
2022-08-05T12:11:47.903Z,101559.22
2022-08-05T12:14:47.270Z,101567.03
2022-08-05T12:18:02.775Z,101562.94
2022-08-05T12:21:15.231Z,101575.66
2022-08-05T12:24:17.377Z,101571.53
2022-08-05T12:27:33.124Z,101578.53
2022-08-05T12:30:37.957Z,101569.09
2022-08-05T12:33:44.120Z,101577.28
2022-08-05T12:36:43.911Z,101585.91
2022-08-05T12:39:42.253Z,101585.47
2022-08-05T12:42:40.158Z,101585.41
2022-08-05T12:45:48.412Z,101578.88
2022-08-05T12:48:48.006Z,101587.50
2022-08-05T12:52:14.113Z,101578.44
2022-08-05T12:55:26.529Z,101583.78
2022-08-05T12:58:51.272Z,101578.88
2022-08-05T13:02:04.266Z,101584.63
2022-08-05T13:05:00.995Z,101582.19
2022-08-05T13:08:00.853Z,101574.78
2022-08-05T13:11:02.266Z,101574.78
2022-08-05T13:14:06.602Z,101578.47
2022-08-05T13:17:16.528Z,101587.09
2022-08-05T13:20:24.148Z,101580.47
2022-08-05T13:23:23.839Z,101575.91
2022-08-05T13:26:27.224Z,101582.03
2022-08-05T13:29:37.701Z,101583.72
2022-08-05T13:32:39.178Z,101588.66
2022-08-05T13:35:47.448Z,101586.16
2022-08-05T13:38:52.071Z,101610.78
2022-08-05T13:41:49.847Z,101603.72
2022-08-05T13:44:46.985Z,101607.03
2022-08-05T13:48:08.687Z,101609.47
2022-08-05T13:51:11.748Z,101611.13
2022-08-05T13:54:11.881Z,101622.22
2022-08-05T13:57:10.973Z,101626.78
2022-08-05T14:00:12.197Z,101636.63
2022-08-05T14:03:11.105Z,101628.03
2022-08-05T14:06:26.953Z,101633.09
2022-08-05T14:09:24.807Z,101647.91
2022-08-05T14:12:32.744Z,101654.41
2022-08-05T14:16:09.179Z,101657.31
2022-08-05T14:18:46.829Z,101663.88
2022-08-05T14:22:11.300Z,101672.50
2022-08-05T14:25:00.628Z,101672.94
2022-08-05T14:27:58.311Z,101670.91
2022-08-05T14:30:59.536Z,101692.63
2022-08-05T14:33:59.873Z,101688.97
2022-08-05T14:36:57.512Z,101681.97
2022-08-05T14:39:56.955Z,101695.06
2022-08-05T14:42:55.858Z,101703.25
2022-08-05T14:45:52.885Z,101705.34
2022-08-05T14:48:50.789Z,101711.53
2022-08-05T14:51:49.729Z,101725.94
2022-08-05T14:54:52.832Z,101719.31
2022-08-05T14:57:54.679Z,101723.41
2022-08-05T15:00:58.868Z,101730.34
2022-08-05T15:03:57.222Z,101734.84
2022-08-05T15:06:54.995Z,101746.00
2022-08-05T15:09:54.167Z,101750.97
2022-08-05T15:13:00.933Z,101758.81
2022-08-05T15:16:00.680Z,101764.94
2022-08-05T15:18:57.811Z,101771.50
2022-08-05T15:22:00.449Z,101769.06
2022-08-05T15:24:59.284Z,101779.31
2022-08-05T15:27:56.983Z,101771.94
2022-08-05T15:30:53.942Z,101785.06
2022-08-05T15:34:05.722Z,101782.59
2022-08-05T15:37:14.827Z,101782.59
2022-08-05T15:40:59.063Z,101795.28
2022-08-05T15:43:29.831Z,101799.41
2022-08-05T15:46:42.837Z,101801.03
2022-08-05T15:49:55.635Z,101801.47
2022-08-05T15:53:01.875Z,101808.06
2022-08-05T15:56:03.704Z,101810.09
2022-08-05T15:59:03.581Z,101799.38
2022-08-05T16:02:00.995Z,101808.81
2022-08-05T16:04:59.487Z,101803.03
2022-08-05T16:07:57.286Z,101807.16
2022-08-05T16:10:54.982Z,101812.53
2022-08-05T16:13:52.341Z,101819.94
2022-08-05T16:16:50.912Z,101811.31
2022-08-05T16:20:04.467Z,101816.25
2022-08-05T16:23:03.950Z,101820.31
2022-08-05T16:26:18.863Z,101831.06
2022-08-05T16:29:24.916Z,101821.19
2022-08-05T16:32:29.076Z,101836.75
2022-08-05T16:35:28.578Z,101835.06
2022-08-05T16:38:31.219Z,101838.28
2022-08-05T16:42:14.654Z,101849.03
2022-08-05T16:44:54.225Z,101854.69
2022-08-05T16:47:57.266Z,101848.16
2022-08-05T16:50:56.051Z,101847.38
2022-08-05T16:54:05.211Z,101852.34
2022-08-05T16:57:22.068Z,101859.41
2022-08-05T17:00:35.098Z,101859.84
2022-08-05T17:03:34.730Z,101858.06
2022-08-05T17:06:32.095Z,101860.16
2022-08-05T17:09:29.937Z,101857.28
2022-08-05T17:12:51.538Z,101866.81
2022-08-05T17:15:48.795Z,101865.66
2022-08-05T17:18:50.038Z,101868.13
2022-08-05T17:21:51.398Z,101865.59
2022-08-05T17:24:58.304Z,101874.19
2022-08-05T17:27:55.988Z,101891.13
2022-08-05T17:30:52.771Z,101895.22
2022-08-05T17:33:51.640Z,101895.66
2022-08-05T17:36:49.051Z,101895.25
2022-08-05T17:39:46.659Z,101903.06
2022-08-05T17:42:53.434Z,101903.00
2022-08-05T17:45:51.221Z,101913.25
2022-08-05T17:48:50.129Z,101917.75
2022-08-05T17:51:50.196Z,101915.63
2022-08-05T17:54:48.036Z,101922.22
2022-08-05T17:57:48.508Z,101919.28
2022-08-05T18:00:50.788Z,101917.16
2022-08-05T18:03:59.803Z,101924.47
2022-08-05T18:07:01.311Z,101928.22
2022-08-05T18:10:08.701Z,101929.44
2022-08-05T18:13:12.460Z,101931.53
2022-08-05T18:16:13.588Z,101940.59
2022-08-05T18:19:11.242Z,101936.91
2022-08-05T18:22:11.311Z,101946.69
2022-08-05T18:25:09.039Z,101948.31
2022-08-05T18:28:06.614Z,101949.91
2022-08-05T18:31:06.085Z,101956.00
2022-08-05T18:34:06.420Z,101967.59
2022-08-05T18:37:12.172Z,101966.81
2022-08-05T18:40:34.187Z,101969.03
2022-08-05T18:43:27.948Z,101978.41
2022-08-05T18:46:29.276Z,101977.63
2022-08-05T18:49:57.814Z,101983.84
2022-08-05T18:52:55.750Z,101989.56
2022-08-05T18:55:53.330Z,101987.47
2022-08-05T18:58:50.917Z,101995.31
2022-08-05T19:01:58.241Z,101989.13
2022-08-05T19:06:05.867Z,101991.91
2022-08-05T19:08:18.892Z,101994.34
2022-08-05T19:11:27.999Z,102003.38
2022-08-05T19:14:52.155Z,102005.47
2022-08-05T19:18:08.898Z,102021.06
2022-08-05T19:21:01.941Z,102017.75
2022-08-05T19:24:06.054Z,102018.63
2022-08-05T19:27:08.179Z,102025.09
2022-08-05T19:30:07.664Z,102025.06
2022-08-05T19:33:11.243Z,102036.16
2022-08-05T19:36:15.078Z,102037.75
2022-08-05T19:39:11.916Z,102044.38
2022-08-05T19:42:15.294Z,102046.50
2022-08-05T19:45:14.544Z,102055.44
2022-08-05T19:48:14.305Z,102061.91
2022-08-05T19:51:11.802Z,102070.41
2022-08-05T19:54:31.880Z,102084.69
2022-08-05T19:57:47.414Z,102084.31
2022-08-05T20:00:46.686Z,102070.41
2022-08-05T20:03:44.476Z,102081.88
2022-08-05T20:06:46.445Z,102090.34
2022-08-05T20:09:54.726Z,102092.97
2022-08-05T20:12:52.026Z,102085.00
2022-08-05T20:15:56.720Z,102097.84
2022-08-05T20:18:55.705Z,102101.94
2022-08-05T20:21:53.096Z,102108.25
2022-08-05T20:24:52.052Z,102111.56
2022-08-05T20:27:51.093Z,102107.81
2022-08-05T20:30:47.999Z,102113.94
2022-08-05T20:33:47.432Z,102128.63
2022-08-05T20:36:45.388Z,102119.13
2022-08-05T20:39:42.360Z,102133.41
2022-08-05T20:42:47.762Z,102141.47
2022-08-05T20:45:47.775Z,102146.63
2022-08-05T20:48:52.934Z,102141.06
2022-08-05T20:51:53.717Z,102153.69
2022-08-05T20:54:59.719Z,102157.50
2022-08-05T20:58:08.241Z,102163.69
2022-08-05T21:01:05.988Z,102163.84
2022-08-05T21:04:03.529Z,102167.25
2022-08-05T21:07:01.116Z,102166.06
2022-08-05T21:09:58.510Z,102165.31
2022-08-05T21:13:08.997Z,102172.31
2022-08-05T21:16:13.126Z,102157.97
2022-08-05T21:19:10.057Z,102175.66
2022-08-05T21:22:07.146Z,102173.81
2022-08-05T21:25:07.762Z,102173.91
2022-08-05T21:28:04.928Z,102188.81
2022-08-05T21:31:02.484Z,102196.50
2022-08-05T21:34:00.600Z,102199.06
2022-08-05T21:36:58.101Z,102196.06
2022-08-05T21:39:55.587Z,102198.19
2022-08-05T21:42:53.839Z,102198.41
2022-08-05T21:45:57.727Z,102204.25
2022-08-05T21:48:57.147Z,102201.88
2022-08-05T21:52:21.871Z,102187.97
2022-08-05T21:55:14.515Z,102193.00
2022-08-05T21:58:12.074Z,102195.00
2022-08-05T22:01:09.069Z,102206.53
2022-08-05T22:04:13.397Z,102200.34
2022-08-05T22:07:11.952Z,102210.19
2022-08-05T22:10:09.755Z,102214.97
2022-08-05T22:13:09.313Z,102224.19
2022-08-05T22:16:41.166Z,102226.09
2022-08-05T22:20:00.502Z,102219.38
2022-08-05T22:23:17.000Z,102224.88
2022-08-05T22:26:36.640Z,102229.19
2022-08-05T22:29:33.872Z,102226.09
2022-08-05T22:32:32.437Z,102230.66
2022-08-05T22:35:47.812Z,102233.91
2022-08-05T22:38:48.260Z,102233.41
2022-08-05T22:42:11.676Z,102238.75
2022-08-05T22:45:04.968Z,102242.22
2022-08-05T22:48:02.107Z,102231.28
2022-08-05T22:50:58.984Z,102234.44
2022-08-05T22:53:56.441Z,102236.72
2022-08-05T22:56:53.354Z,102230.13
2022-08-05T22:59:54.170Z,102229.44
2022-08-05T23:02:53.290Z,102236.84
2022-08-05T23:05:51.334Z,102241.88
2022-08-05T23:08:50.333Z,102231.22
2022-08-05T23:11:49.239Z,102247.25
2022-08-05T23:14:46.998Z,102248.09
2022-08-05T23:18:00.142Z,102263.41
2022-08-05T23:21:00.625Z,102255.50
2022-08-05T23:23:58.129Z,102252.75
2022-08-05T23:26:55.050Z,102253.75
2022-08-05T23:29:52.570Z,102264.53
2022-08-05T23:32:49.546Z,102262.25
2022-08-05T23:35:46.332Z,102275.09
2022-08-05T23:38:45.311Z,102269.75
2022-08-05T23:41:48.539Z,102266.59
2022-08-05T23:44:46.144Z,102278.72
2022-08-05T23:47:53.918Z,102282.00
2022-08-05T23:51:00.122Z,102298.59
2022-08-05T23:54:01.344Z,102291.09
2022-08-05T23:57:03.975Z,102296.59
